createdAt,value
2018-10-04T00:00:40.457Z,8.19
2018-10-04T00:03:07.956Z,8.20
2018-10-04T00:05:35.848Z,8.25
2018-10-04T00:08:04.753Z,8.26
2018-10-04T00:10:32.769Z,8.24
2018-10-04T00:13:00.737Z,8.22
2018-10-04T00:15:29.646Z,8.92
2018-10-04T00:17:57.545Z,8.39
2018-10-04T00:33:20.864Z,8.04
2018-10-04T00:35:49.723Z,8.03
2018-10-04T00:38:16.638Z,8.28
2018-10-04T00:40:43.581Z,8.45
2018-10-04T00:43:10.497Z,8.28
2018-10-04T00:45:37.463Z,9.02
2018-10-04T00:48:04.292Z,8.67
2018-10-04T00:50:31.261Z,8.61
2018-10-04T00:52:59.165Z,8.60
2018-10-04T00:55:26.127Z,8.42
2018-10-04T00:57:53.971Z,8.29
2018-10-04T01:00:20.907Z,8.08
2018-10-04T01:02:47.854Z,8.44
2018-10-04T01:05:14.845Z,8.56
2018-10-04T01:07:44.785Z,8.08
2018-10-04T01:10:15.315Z,7.91
2018-10-04T01:12:42.200Z,7.85
2018-10-04T01:15:10.059Z,7.94
2018-10-04T01:17:36.974Z,7.94
2018-10-04T01:20:08.383Z,7.79
2018-10-04T01:22:39.918Z,7.87
2018-10-04T01:25:06.893Z,7.66
2018-10-04T01:27:33.908Z,7.75
2018-10-04T01:30:06.123Z,7.84
2018-10-04T01:32:33.029Z,7.65
2018-10-04T01:35:00.921Z,7.51
2018-10-04T01:37:27.873Z,7.55
2018-10-04T01:39:54.839Z,7.58
2018-10-04T01:42:23.692Z,7.53
2018-10-04T01:44:50.633Z,7.57
2018-10-04T01:47:17.624Z,7.70
2018-10-04T01:49:44.592Z,7.71
2018-10-04T01:52:11.543Z,7.66
2018-10-04T01:54:38.524Z,7.55
2018-10-04T01:57:05.543Z,7.65
2018-10-04T01:59:33.547Z,7.69
2018-10-04T02:02:01.404Z,8.41
2018-10-04T02:04:28.338Z,7.86
2018-10-04T02:06:55.212Z,7.77
2018-10-04T02:09:22.087Z,7.77
2018-10-04T02:11:51.501Z,7.45
2018-10-04T02:14:18.668Z,7.31
2018-10-04T02:16:45.572Z,7.24
2018-10-04T02:19:12.515Z,7.44
2018-10-04T02:21:39.395Z,7.42
2018-10-04T02:24:06.365Z,7.36
2018-10-04T02:26:34.220Z,7.20
2018-10-04T02:29:01.143Z,6.89
2018-10-04T02:31:28.087Z,7.40
2018-10-04T02:33:56.003Z,7.82
2018-10-04T02:36:24.863Z,7.70
2018-10-04T02:38:51.782Z,7.06
2018-10-04T02:41:20.683Z,6.75
2018-10-04T02:43:47.655Z,6.70
2018-10-04T02:46:14.644Z,6.34
2018-10-04T02:48:41.611Z,6.38
2018-10-04T02:51:08.580Z,6.60
2018-10-04T02:53:39.556Z,6.52
2018-10-04T02:56:14.126Z,7.14
2018-10-04T02:58:44.635Z,6.44
2018-10-04T03:01:11.584Z,6.40
2018-10-04T03:03:41.947Z,7.01
2018-10-04T03:06:09.176Z,6.44
2018-10-04T03:08:38.063Z,6.30
2018-10-04T03:11:05.063Z,6.39
2018-10-04T03:13:35.090Z,6.29
2018-10-04T03:16:02.060Z,6.01
2018-10-04T03:18:30.954Z,5.89
2018-10-04T03:20:57.952Z,5.85
2018-10-04T03:23:25.919Z,5.89
2018-10-04T03:25:52.879Z,6.02
2018-10-04T03:28:23.277Z,6.05
2018-10-04T03:30:53.799Z,6.09
2018-10-04T03:33:20.779Z,6.08
2018-10-04T03:35:47.746Z,5.99
2018-10-04T03:38:14.747Z,5.91
2018-10-04T03:40:41.693Z,5.72
2018-10-04T03:43:09.496Z,5.61
2018-10-04T03:45:36.460Z,5.72
2018-10-04T03:48:03.430Z,5.72
2018-10-04T03:50:30.348Z,5.87
2018-10-04T03:52:57.250Z,5.87
2018-10-04T03:55:31.846Z,5.88
2018-10-04T03:58:02.365Z,5.92
2018-10-04T04:00:29.375Z,5.86
2018-10-04T04:02:56.310Z,5.77
2018-10-04T04:05:23.266Z,5.75
2018-10-04T04:07:51.155Z,6.07
2018-10-04T04:10:18.130Z,6.05
2018-10-04T04:12:46.047Z,6.08
2018-10-04T04:15:14.043Z,6.18
2018-10-04T04:17:42.032Z,6.07
2018-10-04T04:20:08.978Z,5.91
2018-10-04T04:22:35.960Z,5.92
2018-10-04T04:25:03.012Z,5.94
2018-10-04T04:27:33.043Z,5.76
2018-10-04T04:30:00.971Z,5.66
2018-10-04T04:32:27.860Z,5.98
2018-10-04T04:34:58.272Z,5.67
2018-10-04T04:37:25.184Z,5.63
2018-10-04T04:39:56.453Z,5.68
2018-10-04T04:42:27.388Z,5.70
2018-10-04T04:44:58.805Z,5.79
2018-10-04T04:47:29.023Z,5.97
2018-10-04T04:49:56.019Z,5.94
2018-10-04T04:52:22.961Z,6.07
2018-10-04T04:55:36.563Z,6.07
2018-10-04T04:58:05.610Z,5.86
2018-10-04T05:00:33.543Z,5.65
2018-10-04T05:03:00.551Z,5.84
2018-10-04T05:05:27.936Z,5.56
2018-10-04T05:07:56.978Z,5.45
2018-10-04T05:10:24.389Z,5.60
2018-10-04T05:12:52.889Z,5.43
2018-10-04T05:15:19.783Z,5.26
2018-10-04T05:17:46.798Z,5.23
2018-10-04T05:20:14.111Z,5.17
2018-10-04T05:22:41.001Z,5.65
2018-10-04T05:25:07.963Z,5.45
2018-10-04T05:27:34.939Z,5.21
2018-10-04T05:30:02.963Z,5.53
2018-10-04T05:32:31.228Z,5.13
2018-10-04T05:34:58.515Z,5.10
2018-10-04T05:37:25.497Z,5.00
2018-10-04T05:39:52.447Z,5.04
2018-10-04T05:42:19.511Z,5.23
2018-10-04T05:44:54.980Z,5.37
2018-10-04T05:47:29.340Z,5.44
2018-10-04T05:49:56.298Z,5.41
2018-10-04T05:52:24.235Z,5.46
2018-10-04T05:54:51.168Z,5.63
2018-10-04T05:57:18.171Z,5.71
2018-10-04T06:00:10.448Z,5.93
2018-10-04T06:02:37.450Z,5.92
2018-10-04T06:05:04.452Z,6.08
2018-10-04T06:07:31.324Z,5.83
2018-10-04T06:09:58.287Z,6.41
2018-10-04T06:12:25.267Z,6.07
2018-10-04T06:14:52.321Z,6.16
2018-10-04T06:17:19.227Z,6.15
2018-10-04T06:19:48.143Z,6.20
2018-10-04T06:22:15.106Z,6.27
2018-10-04T06:24:42.147Z,6.38
2018-10-04T06:27:09.082Z,6.36
2018-10-04T06:29:36.039Z,6.61
2018-10-04T06:32:04.973Z,6.70
2018-10-04T06:34:31.916Z,6.71
2018-10-04T06:36:58.889Z,6.85
2018-10-04T06:39:27.759Z,6.97
2018-10-04T06:41:54.966Z,7.10
2018-10-04T06:44:21.948Z,7.15
2018-10-04T06:46:48.940Z,7.13
2018-10-04T06:49:15.889Z,7.32
2018-10-04T06:51:43.771Z,7.48
2018-10-04T06:54:10.639Z,7.68
2018-10-04T06:56:37.652Z,7.84
2018-10-04T06:59:05.648Z,7.98
2018-10-04T07:01:32.571Z,7.96
2018-10-04T07:03:59.555Z,7.96
2018-10-04T07:06:26.523Z,8.01
2018-10-04T07:08:53.480Z,7.98
2018-10-04T07:11:20.455Z,7.96
2018-10-04T07:13:47.321Z,8.16
2018-10-04T07:16:14.235Z,8.36
2018-10-04T07:18:41.179Z,8.42
2018-10-04T07:21:08.306Z,8.47
2018-10-04T07:23:35.171Z,8.47
2018-10-04T07:26:02.043Z,8.61
2018-10-04T07:28:28.919Z,8.67
2018-10-04T07:30:55.767Z,8.90
2018-10-04T07:33:22.645Z,9.05
2018-10-04T07:35:49.511Z,9.21
2018-10-04T07:38:16.419Z,9.18
2018-10-04T07:40:43.311Z,9.30
2018-10-04T07:43:10.256Z,9.38
2018-10-04T07:45:37.115Z,9.41
2018-10-04T07:48:04.129Z,9.63
2018-10-04T07:50:33.029Z,9.69
2018-10-04T07:52:59.975Z,10.01
2018-10-04T07:55:26.863Z,10.08
2018-10-04T07:57:53.730Z,10.23
2018-10-04T08:00:20.642Z,10.34
2018-10-04T08:02:48.552Z,10.52
2018-10-04T08:05:15.509Z,10.76
2018-10-04T08:07:42.452Z,10.83
2018-10-04T08:10:11.356Z,10.98
2018-10-04T08:12:38.247Z,11.17
2018-10-04T08:15:05.133Z,11.19
2018-10-04T08:17:32.002Z,11.47
2018-10-04T08:19:59.028Z,11.62
2018-10-04T08:22:25.984Z,11.79
2018-10-04T08:24:52.951Z,11.92
2018-10-04T08:27:20.840Z,12.17
2018-10-04T08:29:47.768Z,12.01
2018-10-04T08:34:49.757Z,12.43
2018-10-04T08:37:18.667Z,12.58
2018-10-04T08:39:45.731Z,12.59
2018-10-04T08:42:14.657Z,12.70
2018-10-04T08:44:41.655Z,12.94
2018-10-04T08:49:45.638Z,12.91
2018-10-04T08:52:18.211Z,13.23
2018-10-04T08:54:45.179Z,13.37
2018-10-04T08:57:12.173Z,13.47
2018-10-04T08:59:39.092Z,13.70
2018-10-04T09:02:05.979Z,13.72
2018-10-04T09:04:40.505Z,13.70
2018-10-04T09:07:08.470Z,14.13
2018-10-04T09:09:35.427Z,14.29
2018-10-04T09:12:03.399Z,14.61
2018-10-04T09:14:30.382Z,14.56
2018-10-04T09:16:57.330Z,14.75
2018-10-04T09:19:26.285Z,14.97
2018-10-04T09:21:53.227Z,15.11
2018-10-04T09:24:21.099Z,15.18
2018-10-04T09:26:47.983Z,15.09
2018-10-04T09:29:14.986Z,15.32
2018-10-04T09:31:45.055Z,15.71
2018-10-04T09:34:15.355Z,15.71
2018-10-04T09:36:42.339Z,15.69
2018-10-04T09:39:10.715Z,15.83
2018-10-04T09:41:44.662Z,15.71
2018-10-04T09:44:11.634Z,15.82
2018-10-04T09:46:38.558Z,15.78
2018-10-04T09:49:05.540Z,16.20
2018-10-04T09:51:38.215Z,16.48
2018-10-04T09:54:06.168Z,16.29
2018-10-04T09:56:38.851Z,16.14
2018-10-04T09:59:07.881Z,16.35
2018-10-04T10:01:41.357Z,16.42
2018-10-04T10:04:09.511Z,16.40
2018-10-04T10:06:36.503Z,16.45
2018-10-04T10:09:05.912Z,16.79
2018-10-04T10:11:32.851Z,16.92
2018-10-04T10:13:59.753Z,16.69
2018-10-04T10:16:26.619Z,16.52
2018-10-04T10:18:55.569Z,16.68
2018-10-04T10:23:58.540Z,17.05
2018-10-04T10:26:26.515Z,17.28
2018-10-04T10:28:54.384Z,17.46
2018-10-04T10:31:21.274Z,17.68
2018-10-04T10:33:48.304Z,17.46
2018-10-04T10:36:15.275Z,17.45
2018-10-04T10:38:42.188Z,18.00
2018-10-04T10:41:09.431Z,18.10
2018-10-04T10:43:38.336Z,17.63
2018-10-04T10:46:07.986Z,17.78
2018-10-04T10:48:35.176Z,17.61
2018-10-04T10:51:02.210Z,17.82
2018-10-04T10:53:30.270Z,17.73
2018-10-04T10:55:57.236Z,17.79
2018-10-04T10:58:24.264Z,18.16
2018-10-04T11:00:51.168Z,17.79
2018-10-04T11:03:28.361Z,17.81
2018-10-04T11:05:55.295Z,17.91
2018-10-04T11:08:23.344Z,17.91
2018-10-04T11:10:50.368Z,18.02
2018-10-04T11:13:17.249Z,18.20
2018-10-04T11:15:47.518Z,18.10
2018-10-04T11:18:16.545Z,18.02
2018-10-04T11:20:43.473Z,18.10
2018-10-04T11:23:11.515Z,18.11
2018-10-04T11:25:39.469Z,18.37
2018-10-04T11:28:08.083Z,18.64
2018-10-04T11:30:34.989Z,18.71
2018-10-04T11:33:01.956Z,18.50
2018-10-04T11:35:28.946Z,18.47
2018-10-04T11:38:04.183Z,18.44
2018-10-04T11:40:31.211Z,18.59
2018-10-04T11:42:58.154Z,18.43
2018-10-04T11:45:38.345Z,18.53
2018-10-04T11:48:09.056Z,18.65
2018-10-04T11:50:36.001Z,18.18
2018-10-04T11:53:03.035Z,18.32
2018-10-04T11:55:30.024Z,18.23
2018-10-04T11:57:57.028Z,18.33
2018-10-04T12:00:25.433Z,18.38
2018-10-04T12:02:53.192Z,18.51
2018-10-04T12:05:21.512Z,18.63
2018-10-04T12:07:49.523Z,18.63
2018-10-04T12:10:16.469Z,18.77
2018-10-04T12:12:43.344Z,18.88
2018-10-04T12:15:10.191Z,19.02
2018-10-04T12:17:37.933Z,19.04
2018-10-04T12:20:06.329Z,18.68
2018-10-04T12:22:34.347Z,18.98
2018-10-04T12:25:01.530Z,18.65
2018-10-04T12:27:28.367Z,18.76
2018-10-04T12:29:56.398Z,18.99
2018-10-04T12:32:32.954Z,18.96
2018-10-04T12:35:01.499Z,19.43
2018-10-04T12:37:30.600Z,19.23
2018-10-04T12:39:57.727Z,19.24
2018-10-04T12:42:25.548Z,18.85
2018-10-04T12:44:53.590Z,18.83
2018-10-04T12:47:20.552Z,18.72
2018-10-04T12:49:47.598Z,18.79
2018-10-04T12:52:14.543Z,18.64
2018-10-04T12:54:42.729Z,19.19
2018-10-04T12:57:12.910Z,19.22
2018-10-04T12:59:42.093Z,19.17
2018-10-04T13:02:09.866Z,19.33
2018-10-04T13:04:37.915Z,19.55
2018-10-04T13:07:07.091Z,19.62
2018-10-04T13:09:33.972Z,19.07
2018-10-04T13:12:00.959Z,19.07
2018-10-04T13:14:27.940Z,18.87
2018-10-04T13:16:55.811Z,18.95
2018-10-04T13:19:22.775Z,19.04
2018-10-04T13:21:50.701Z,19.14
2018-10-04T13:24:17.722Z,19.14
2018-10-04T13:26:44.780Z,19.10
2018-10-04T13:29:13.887Z,19.23
2018-10-04T13:31:40.882Z,19.32
2018-10-04T13:34:07.847Z,19.26
2018-10-04T13:36:34.808Z,19.25
2018-10-04T13:39:01.767Z,19.26
2018-10-04T13:41:30.734Z,19.21
2018-10-04T13:43:57.658Z,19.34
2018-10-04T13:46:25.687Z,19.37
2018-10-04T13:48:52.644Z,19.44
2018-10-04T13:51:20.655Z,19.28
2018-10-04T13:53:47.585Z,19.41
2018-10-04T13:56:14.455Z,19.41
2018-10-04T13:58:41.447Z,19.30
2018-10-04T14:01:09.134Z,19.43
2018-10-04T14:03:36.100Z,19.55
2018-10-04T14:06:03.124Z,19.30
2018-10-04T14:08:30.123Z,19.66
2018-10-04T14:10:57.111Z,19.77
2018-10-04T14:13:24.126Z,19.59
2018-10-04T14:15:51.017Z,19.69
2018-10-04T14:18:17.992Z,20.00
2018-10-04T14:20:44.885Z,19.82
2018-10-04T14:23:11.828Z,19.68
2018-10-04T14:25:38.750Z,19.56
2018-10-04T14:28:05.660Z,19.51
2018-10-04T14:30:32.651Z,19.43
2018-10-04T14:33:00.622Z,19.39
2018-10-04T14:35:27.636Z,19.44
2018-10-04T14:37:54.571Z,19.51
2018-10-04T14:40:21.460Z,19.38
2018-10-04T14:42:49.376Z,19.10
2018-10-04T14:45:16.311Z,19.22
2018-10-04T14:47:43.307Z,19.55
2018-10-04T14:50:10.230Z,19.47
2018-10-04T14:52:37.107Z,19.38
2018-10-04T14:55:04.108Z,19.38
2018-10-04T14:57:31.036Z,19.53
2018-10-04T14:59:57.970Z,19.65
2018-10-04T15:02:24.887Z,19.77
2018-10-04T15:04:51.787Z,19.72
2018-10-04T15:07:18.873Z,19.49
2018-10-04T15:09:45.811Z,19.34
2018-10-04T15:12:12.692Z,19.19
2018-10-04T15:14:40.029Z,19.17
2018-10-04T15:17:06.847Z,19.18
2018-10-04T15:19:34.037Z,19.09
2018-10-04T15:22:00.927Z,19.16
2018-10-04T15:24:27.931Z,19.17
2018-10-04T15:26:54.780Z,19.28
2018-10-04T15:29:21.747Z,19.36
2018-10-04T15:31:48.675Z,19.25
2018-10-04T15:34:15.726Z,19.09
2018-10-04T15:36:42.607Z,19.18
2018-10-04T15:39:10.198Z,19.10
2018-10-04T15:41:37.567Z,19.15
2018-10-04T15:44:04.571Z,19.07
2018-10-04T15:46:31.452Z,19.18
2018-10-04T15:48:58.378Z,19.24
2018-10-04T15:51:27.362Z,19.08
2018-10-04T15:53:56.251Z,18.97
2018-10-04T15:56:23.150Z,18.85
2018-10-04T15:58:50.103Z,18.85
2018-10-04T16:01:17.047Z,18.90
2018-10-04T16:03:44.128Z,18.85
2018-10-04T16:06:11.144Z,18.87
2018-10-04T16:08:38.205Z,19.01
2018-10-04T16:11:05.279Z,19.05
2018-10-04T16:13:32.191Z,18.79
2018-10-04T16:16:00.068Z,18.63
2018-10-04T16:18:27.055Z,18.48
2018-10-04T16:20:54.099Z,18.44
2018-10-04T16:23:21.104Z,18.34
2018-10-04T16:25:48.071Z,18.22
2018-10-04T16:28:15.962Z,18.10
2018-10-04T16:30:42.847Z,18.04
2018-10-04T16:33:09.709Z,17.89
2018-10-04T16:35:36.675Z,17.84
2018-10-04T16:38:03.561Z,17.48
2018-10-04T16:40:30.510Z,17.57
2018-10-04T16:42:57.487Z,17.38
2018-10-04T16:45:24.483Z,17.38
2018-10-04T16:47:51.432Z,17.31
2018-10-04T16:50:19.319Z,17.23
2018-10-04T16:52:46.194Z,17.06
2018-10-04T16:55:13.063Z,17.06
2018-10-04T16:57:40.095Z,17.11
2018-10-04T17:00:07.020Z,17.02
2018-10-04T17:02:33.981Z,16.98
2018-10-04T17:05:00.855Z,16.73
2018-10-04T17:07:28.860Z,16.54
2018-10-04T17:09:55.877Z,16.29
2018-10-04T17:12:24.254Z,16.14
2018-10-04T17:14:55.439Z,15.77
2018-10-04T17:17:22.650Z,15.66
2018-10-04T17:19:49.611Z,15.41
2018-10-04T17:22:16.722Z,15.08
2018-10-04T17:24:43.663Z,14.87
2018-10-04T17:27:10.787Z,14.90
2018-10-04T17:29:38.203Z,14.60
2018-10-04T17:32:05.024Z,14.49
2018-10-04T17:34:32.032Z,14.30
2018-10-04T17:36:58.983Z,14.67
2018-10-04T17:39:25.955Z,14.30
2018-10-04T17:41:52.933Z,13.91
2018-10-04T17:44:19.916Z,14.15
2018-10-04T17:46:46.963Z,14.11
2018-10-04T17:49:13.876Z,14.23
2018-10-04T17:51:40.835Z,14.08
2018-10-04T17:54:09.758Z,13.94
2018-10-04T17:56:36.706Z,13.74
2018-10-04T17:59:03.696Z,13.80
2018-10-04T18:01:30.651Z,14.02
2018-10-04T18:03:57.608Z,13.70
2018-10-04T18:06:25.569Z,13.55
2018-10-04T18:08:52.711Z,13.48
2018-10-04T18:11:19.721Z,13.33
2018-10-04T18:13:46.690Z,13.32
2018-10-04T18:16:13.579Z,13.29
2018-10-04T18:18:40.537Z,13.14
2018-10-04T18:21:07.403Z,13.31
2018-10-04T18:23:34.592Z,13.42
2018-10-04T18:26:01.499Z,13.48
2018-10-04T18:28:28.524Z,13.44
2018-10-04T18:30:55.437Z,13.41
2018-10-04T18:33:22.378Z,13.41
2018-10-04T18:35:50.309Z,13.49
2018-10-04T18:38:17.307Z,13.51
2018-10-04T18:40:44.207Z,13.38
2018-10-04T18:43:11.132Z,13.42
2018-10-04T18:45:38.404Z,13.23
2018-10-04T18:48:05.359Z,13.25
2018-10-04T18:50:32.220Z,13.43
2018-10-04T18:53:00.211Z,13.07
2018-10-04T18:55:27.107Z,12.98
2018-10-04T18:57:54.038Z,12.84
2018-10-04T19:00:20.983Z,12.71
2018-10-04T19:02:47.955Z,12.57
2018-10-04T19:05:14.972Z,12.49
2018-10-04T19:07:41.947Z,12.50
2018-10-04T19:10:08.866Z,12.44
2018-10-04T19:12:35.949Z,12.47
2018-10-04T19:15:02.819Z,12.51
2018-10-04T19:17:29.785Z,12.42
2018-10-04T19:20:02.703Z,12.37
2018-10-04T19:22:29.703Z,12.40
2018-10-04T19:24:56.630Z,12.26
2018-10-04T19:27:24.611Z,12.37
2018-10-04T19:29:51.496Z,12.39
2018-10-04T19:32:18.387Z,12.48
2018-10-04T19:34:46.265Z,12.48
2018-10-04T19:37:13.238Z,12.70
2018-10-04T19:39:40.225Z,12.68
2018-10-04T19:42:07.286Z,12.55
2018-10-04T19:44:34.635Z,12.63
2018-10-04T19:47:01.551Z,12.59
2018-10-04T19:49:28.495Z,12.49
2018-10-04T19:51:55.405Z,12.43
2018-10-04T19:54:22.353Z,12.42
2018-10-04T19:56:49.306Z,12.23
2018-10-04T19:59:16.201Z,12.14
2018-10-04T20:01:44.064Z,12.10
2018-10-04T20:04:10.977Z,12.03
2018-10-04T20:06:38.951Z,12.10
2018-10-04T20:09:07.290Z,12.06
2018-10-04T20:11:34.132Z,11.87
2018-10-04T20:14:01.073Z,12.26
2018-10-04T20:16:28.045Z,11.80
2018-10-04T20:18:55.040Z,11.77
2018-10-04T20:21:21.992Z,11.76
2018-10-04T20:23:48.964Z,11.64
2018-10-04T20:26:15.927Z,11.66
2018-10-04T20:28:42.908Z,11.51
2018-10-04T20:31:09.913Z,11.44
2018-10-04T20:33:37.886Z,11.30
2018-10-04T20:36:04.836Z,11.26
2018-10-04T20:38:31.803Z,11.26
2018-10-04T20:40:58.664Z,11.26
2018-10-04T20:43:25.549Z,11.44
2018-10-04T20:45:52.515Z,11.43
2018-10-04T20:48:19.398Z,11.43
2018-10-04T20:50:46.355Z,11.41
2018-10-04T20:53:13.401Z,11.44
2018-10-04T20:55:40.291Z,11.26
2018-10-04T20:58:07.151Z,11.28
2018-10-04T21:00:35.059Z,11.12
2018-10-04T21:03:02.965Z,11.02
2018-10-04T21:05:29.926Z,10.93
2018-10-04T21:07:58.823Z,10.90
2018-10-04T21:10:25.701Z,10.92
2018-10-04T21:12:52.575Z,10.97
2018-10-04T21:15:21.491Z,10.78
2018-10-04T21:17:49.375Z,10.73
2018-10-04T21:20:16.246Z,10.63
2018-10-04T21:22:43.310Z,10.63
2018-10-04T21:25:10.237Z,10.57
2018-10-04T21:27:38.202Z,10.60
2018-10-04T21:30:06.578Z,10.60
2018-10-04T21:32:34.516Z,10.68
2018-10-04T21:35:05.889Z,10.75
2018-10-04T21:37:32.819Z,10.29
2018-10-04T21:39:59.709Z,10.34
2018-10-04T21:42:26.567Z,10.45
2018-10-04T21:44:53.527Z,10.48
2018-10-04T21:47:20.439Z,10.55
2018-10-04T21:49:47.384Z,10.58
2018-10-04T21:52:14.339Z,10.54
2018-10-04T21:54:45.307Z,10.51
2018-10-04T21:57:12.294Z,10.53
2018-10-04T21:59:39.363Z,10.54
2018-10-04T22:02:06.359Z,10.60
2018-10-04T22:04:38.689Z,10.76
2018-10-04T22:07:05.617Z,10.70
2018-10-04T22:09:32.467Z,10.56
2018-10-04T22:11:59.436Z,10.32
2018-10-04T22:14:26.403Z,10.31
2018-10-04T22:16:53.385Z,10.49
2018-10-04T22:19:20.348Z,10.44
2018-10-04T22:21:47.351Z,10.55
2018-10-04T22:24:14.281Z,10.62
2018-10-04T22:26:41.148Z,10.66
2018-10-04T22:29:08.110Z,10.43
2018-10-04T22:31:34.982Z,10.36
2018-10-04T22:34:01.899Z,10.40
2018-10-04T22:36:28.823Z,10.42
2018-10-04T22:38:55.703Z,10.39
2018-10-04T22:41:22.715Z,10.51
2018-10-04T22:43:50.254Z,10.53
2018-10-04T22:46:17.142Z,10.51
2018-10-04T22:48:45.044Z,10.55
2018-10-04T22:51:11.983Z,10.50
2018-10-04T22:53:38.956Z,10.46
2018-10-04T22:56:06.227Z,10.40
2018-10-04T22:58:33.100Z,10.39
2018-10-04T23:01:02.050Z,10.23
2018-10-04T23:03:29.012Z,10.21
2018-10-04T23:05:55.949Z,10.14
2018-10-04T23:08:22.931Z,10.04
2018-10-04T23:10:49.787Z,9.91
2018-10-04T23:13:17.725Z,9.84
2018-10-04T23:15:44.667Z,9.81
2018-10-04T23:18:11.527Z,9.86
2018-10-04T23:20:38.779Z,9.95
2018-10-04T23:23:05.803Z,9.80
2018-10-04T23:25:32.747Z,9.82
2018-10-04T23:27:59.599Z,9.73
2018-10-04T23:30:28.543Z,9.71
2018-10-04T23:32:55.535Z,9.66
2018-10-04T23:35:22.511Z,9.52
2018-10-04T23:37:49.476Z,9.21
2018-10-04T23:40:16.419Z,9.00
2018-10-04T23:42:43.279Z,8.86
2018-10-04T23:45:10.144Z,8.83
2018-10-04T23:47:38.045Z,8.79
2018-10-04T23:50:05.052Z,8.63
2018-10-04T23:52:32.014Z,8.66
2018-10-04T23:54:58.858Z,8.76
2018-10-04T23:57:25.699Z,8.73
2018-10-04T23:59:52.606Z,8.82
